createdAt,value
2023-04-18T00:00:02.215Z,6.00
2023-04-18T00:02:39.790Z,6.00
2023-04-18T00:05:08.514Z,6.00
2023-04-18T00:07:35.649Z,6.00
2023-04-18T00:10:06.606Z,6.00
2023-04-18T00:12:34.363Z,6.00
2023-04-18T00:15:02.295Z,6.00
2023-04-18T00:17:30.361Z,6.00
2023-04-18T00:19:58.441Z,5.90
2023-04-18T00:22:25.993Z,6.00
2023-04-18T00:24:52.768Z,5.90
2023-04-18T00:27:20.544Z,5.90
2023-04-18T00:29:48.118Z,5.80
2023-04-18T00:32:17.752Z,5.90
2023-04-18T00:34:45.157Z,5.80
2023-04-18T00:37:13.029Z,5.80
2023-04-18T00:39:42.140Z,5.80
2023-04-18T00:42:08.978Z,5.80
2023-04-18T00:44:36.214Z,5.80
2023-04-18T00:47:03.065Z,5.80
2023-04-18T00:49:30.092Z,5.80
2023-04-18T00:51:57.152Z,5.80
2023-04-18T00:54:25.401Z,5.80
2023-04-18T00:56:52.646Z,5.80
2023-04-18T00:59:21.123Z,5.80
2023-04-18T01:01:48.101Z,5.70
2023-04-18T01:04:15.115Z,5.70
2023-04-18T01:06:44.009Z,5.60
2023-04-18T01:09:11.216Z,5.70
2023-04-18T01:11:38.094Z,5.60
2023-04-18T01:14:07.445Z,5.60
2023-04-18T01:16:40.051Z,5.60
2023-04-18T01:19:07.086Z,5.60
2023-04-18T01:21:37.463Z,5.60
2023-04-18T01:24:12.663Z,5.60
2023-04-18T01:26:44.040Z,5.60
2023-04-18T01:29:11.513Z,5.60
2023-04-18T01:31:39.307Z,5.60
2023-04-18T01:34:08.003Z,5.60
2023-04-18T01:36:35.998Z,5.60
2023-04-18T01:39:03.007Z,5.60
2023-04-18T01:41:32.391Z,5.60
2023-04-18T01:43:59.760Z,5.60
2023-04-18T01:46:27.010Z,5.50
2023-04-18T01:48:54.750Z,5.60
2023-04-18T01:51:22.278Z,5.50
2023-04-18T01:53:49.309Z,5.50
2023-04-18T01:56:16.274Z,5.50
2023-04-18T01:58:43.096Z,5.50
2023-04-18T02:01:10.443Z,5.50
2023-04-18T02:03:38.747Z,5.50
2023-04-18T02:06:06.790Z,5.50
2023-04-18T02:08:36.104Z,5.50
2023-04-18T02:11:05.590Z,5.50
2023-04-18T02:13:32.710Z,5.40
2023-04-18T02:15:59.852Z,5.40
2023-04-18T02:18:27.401Z,5.40
2023-04-18T02:20:54.417Z,5.40
2023-04-18T02:23:22.702Z,5.40
2023-04-18T02:25:50.699Z,5.40
2023-04-18T02:28:18.100Z,5.50
2023-04-18T02:30:44.892Z,5.50
2023-04-18T02:33:11.970Z,5.50
2023-04-18T02:35:39.015Z,5.50
2023-04-18T02:38:05.947Z,5.50
2023-04-18T02:40:32.762Z,5.50
2023-04-18T02:42:59.978Z,5.50
2023-04-18T02:45:27.635Z,5.50
2023-04-18T02:47:57.129Z,5.50
2023-04-18T02:50:24.872Z,5.50
2023-04-18T02:52:53.460Z,5.50
2023-04-18T02:55:26.874Z,5.50
2023-04-18T02:57:57.433Z,5.50
2023-04-18T03:00:50.549Z,5.50
2023-04-18T03:03:44.669Z,5.50
2023-04-18T03:06:24.901Z,5.50
2023-04-18T03:08:53.025Z,5.50
2023-04-18T03:11:20.109Z,5.40
2023-04-18T03:13:47.268Z,5.50
2023-04-18T03:16:15.042Z,5.40
2023-04-18T03:18:44.164Z,5.50
2023-04-18T03:21:11.789Z,5.40
2023-04-18T03:23:38.996Z,5.40
2023-04-18T03:26:08.057Z,5.40
2023-04-18T03:28:37.840Z,5.40
2023-04-18T03:31:05.457Z,5.40
2023-04-18T03:33:35.212Z,5.40
2023-04-18T03:36:08.838Z,5.40
2023-04-18T03:38:36.894Z,5.30
2023-04-18T03:41:03.698Z,5.40
2023-04-18T03:43:34.259Z,5.40
2023-04-18T03:46:01.464Z,5.40
2023-04-18T03:48:35.767Z,5.40
2023-04-18T03:51:06.369Z,5.40
2023-04-18T03:53:34.040Z,5.30
2023-04-18T03:56:00.875Z,5.40
2023-04-18T03:58:42.346Z,5.40
2023-04-18T04:01:09.289Z,5.40
2023-04-18T04:03:37.210Z,5.40
2023-04-18T04:06:06.445Z,5.40
2023-04-18T04:08:33.942Z,5.40
2023-04-18T04:11:00.962Z,5.40
2023-04-18T04:13:28.215Z,5.40
2023-04-18T04:15:55.571Z,5.40
2023-04-18T04:18:29.721Z,5.40
2023-04-18T04:20:59.116Z,5.40
2023-04-18T04:23:36.319Z,5.40
2023-04-18T04:26:03.258Z,5.30
2023-04-18T04:28:40.087Z,5.30
2023-04-18T04:31:08.342Z,5.30
2023-04-18T04:33:38.791Z,5.30
2023-04-18T04:36:15.203Z,5.30
2023-04-18T04:38:44.337Z,5.30
2023-04-18T04:41:11.766Z,5.30
2023-04-18T04:43:41.411Z,5.40
2023-04-18T04:46:09.384Z,5.30
2023-04-18T04:48:36.180Z,5.40
2023-04-18T04:51:03.977Z,5.30
2023-04-18T04:53:31.402Z,5.30
2023-04-18T04:56:00.226Z,5.30
2023-04-18T04:58:27.641Z,5.30
2023-04-18T05:00:57.244Z,5.40
2023-04-18T05:03:24.368Z,5.40
2023-04-18T05:05:51.599Z,5.30
2023-04-18T05:08:18.436Z,5.40
2023-04-18T05:10:45.956Z,5.40
2023-04-18T05:13:12.729Z,5.40
2023-04-18T05:15:39.749Z,5.30
2023-04-18T05:18:07.081Z,5.30
2023-04-18T05:20:33.870Z,5.30
2023-04-18T05:23:01.081Z,5.30
2023-04-18T05:25:29.712Z,5.30
2023-04-18T05:27:56.975Z,5.30
2023-04-18T05:30:23.790Z,5.30
2023-04-18T05:32:50.917Z,5.30
2023-04-18T05:35:17.777Z,5.30
2023-04-18T05:37:44.818Z,5.30
2023-04-18T05:40:12.890Z,5.30
2023-04-18T05:42:39.775Z,5.30
2023-04-18T05:45:07.124Z,5.30
2023-04-18T05:47:34.165Z,5.20
2023-04-18T05:50:01.096Z,5.20
2023-04-18T05:52:27.906Z,5.20
2023-04-18T05:54:54.725Z,5.20
2023-04-18T05:57:21.542Z,5.20
2023-04-18T05:59:48.316Z,5.20
2023-04-18T06:02:15.231Z,5.20
2023-04-18T06:04:42.976Z,5.20
2023-04-18T06:07:10.133Z,5.20
2023-04-18T06:09:36.988Z,5.20
2023-04-18T06:12:04.159Z,5.20
2023-04-18T06:14:31.034Z,5.20
2023-04-18T06:16:58.087Z,5.20
2023-04-18T06:19:25.017Z,5.20
2023-04-18T06:21:54.156Z,5.20
2023-04-18T06:24:20.975Z,5.20
2023-04-18T06:26:48.386Z,5.20
2023-04-18T06:29:15.319Z,5.30
2023-04-18T06:31:45.479Z,5.20
2023-04-18T06:34:13.183Z,5.20
2023-04-18T06:36:40.317Z,5.20
2023-04-18T06:39:07.296Z,5.20
2023-04-18T06:41:34.127Z,5.20
2023-04-18T06:44:04.129Z,5.20
2023-04-18T06:46:32.547Z,5.30
2023-04-18T06:48:59.736Z,5.30
2023-04-18T06:51:27.395Z,5.30
2023-04-18T06:53:54.435Z,5.30
2023-04-18T06:56:21.651Z,5.20
2023-04-18T06:58:49.376Z,5.20
2023-04-18T07:01:16.477Z,5.30
2023-04-18T07:03:44.079Z,5.30
2023-04-18T07:06:11.044Z,5.30
2023-04-18T07:08:38.483Z,5.40
2023-04-18T07:11:06.619Z,5.40
2023-04-18T07:13:33.591Z,5.40
2023-04-18T07:16:01.588Z,5.40
2023-04-18T07:18:38.018Z,5.50
2023-04-18T07:21:08.910Z,5.50
2023-04-18T07:23:36.130Z,5.40
2023-04-18T07:26:03.370Z,5.50
2023-04-18T07:28:32.262Z,5.60
2023-04-18T07:30:59.515Z,5.60
2023-04-18T07:33:26.412Z,5.50
2023-04-18T07:35:53.309Z,5.50
2023-04-18T07:38:20.695Z,5.50
2023-04-18T07:40:55.931Z,5.50
2023-04-18T07:43:22.763Z,5.50
2023-04-18T07:45:49.618Z,5.60
2023-04-18T07:48:16.828Z,5.60
2023-04-18T07:50:44.052Z,5.60
2023-04-18T07:53:10.904Z,5.60
2023-04-18T07:55:37.729Z,5.60
2023-04-18T07:58:04.530Z,5.60
2023-04-18T08:00:32.713Z,5.60
2023-04-18T08:02:59.616Z,5.60
2023-04-18T08:05:26.613Z,5.50
2023-04-18T08:07:53.485Z,5.50
2023-04-18T08:10:22.465Z,5.50
2023-04-18T08:12:50.473Z,5.50
2023-04-18T08:15:17.231Z,5.50
2023-04-18T08:17:45.280Z,5.50
2023-04-18T08:20:12.967Z,5.50
2023-04-18T08:22:50.426Z,5.50
2023-04-18T08:25:24.105Z,5.40
2023-04-18T08:27:50.875Z,5.40
2023-04-18T08:30:17.939Z,5.50
2023-04-18T08:32:44.854Z,5.50
2023-04-18T08:35:11.713Z,5.60
2023-04-18T08:37:38.878Z,5.50
2023-04-18T08:40:07.238Z,5.50
2023-04-18T08:42:35.426Z,5.50
2023-04-18T08:45:02.686Z,5.50
2023-04-18T08:47:30.062Z,5.60
2023-04-18T08:49:58.425Z,5.70
2023-04-18T08:52:27.250Z,5.80
2023-04-18T08:54:54.067Z,5.80
2023-04-18T08:57:23.750Z,5.90
2023-04-18T08:59:51.264Z,5.90
2023-04-18T09:02:19.222Z,6.00
2023-04-18T09:04:49.210Z,6.00
2023-04-18T09:07:18.167Z,6.10
2023-04-18T09:09:45.473Z,6.10
2023-04-18T09:12:18.323Z,6.20
2023-04-18T09:14:47.173Z,6.20
2023-04-18T09:17:18.368Z,6.10
2023-04-18T09:19:48.953Z,6.20
2023-04-18T09:22:17.506Z,6.30
2023-04-18T09:24:57.398Z,6.30
2023-04-18T09:27:25.017Z,6.40
2023-04-18T09:29:55.252Z,6.40
2023-04-18T09:32:25.672Z,6.40
2023-04-18T09:34:58.157Z,6.50
2023-04-18T09:37:26.340Z,6.60
2023-04-18T09:39:53.492Z,6.70
2023-04-18T09:42:21.196Z,6.70
2023-04-18T09:44:59.782Z,6.80
2023-04-18T09:47:28.258Z,6.90
2023-04-18T09:49:55.589Z,7.00
2023-04-18T09:52:25.832Z,7.20
2023-04-18T09:55:00.216Z,7.30
2023-04-18T09:57:29.334Z,7.20
2023-04-18T10:00:13.374Z,7.20
2023-04-18T10:03:02.590Z,7.30
2023-04-18T10:05:35.768Z,7.40
2023-04-18T10:08:04.179Z,7.40
2023-04-18T10:10:31.154Z,7.40
2023-04-18T10:13:00.378Z,7.60
2023-04-18T10:15:29.548Z,7.70
2023-04-18T10:18:05.359Z,7.70
2023-04-18T10:20:35.056Z,7.70
2023-04-18T10:23:31.459Z,7.80
2023-04-18T10:25:59.136Z,7.90
2023-04-18T10:28:27.541Z,7.80
2023-04-18T10:31:05.597Z,7.90
2023-04-18T10:33:42.353Z,7.90
2023-04-18T10:36:09.870Z,8.00
2023-04-18T10:38:45.221Z,8.20
2023-04-18T10:41:22.647Z,8.30
2023-04-18T10:44:14.632Z,8.50
2023-04-18T10:47:03.811Z,8.70
2023-04-18T10:49:32.879Z,8.90
2023-04-18T10:52:01.657Z,9.10
2023-04-18T10:54:47.585Z,9.20
2023-04-18T10:57:15.613Z,9.30
2023-04-18T10:59:44.066Z,9.30
2023-04-18T11:02:32.606Z,9.30
2023-04-18T11:05:07.623Z,9.30
2023-04-18T11:07:37.687Z,9.50
2023-04-18T11:10:06.306Z,9.70
2023-04-18T11:12:36.290Z,9.30
2023-04-18T11:15:15.179Z,9.70
2023-04-18T11:17:44.518Z,10.30
2023-04-18T11:20:15.160Z,10.60
2023-04-18T11:22:59.601Z,10.70
2023-04-18T11:25:34.530Z,11.00
2023-04-18T11:28:03.823Z,11.20
2023-04-18T11:30:41.309Z,11.20
2023-04-18T11:33:09.585Z,11.10
2023-04-18T11:35:38.673Z,11.10
2023-04-18T11:38:07.192Z,11.10
2023-04-18T11:40:37.738Z,11.20
2023-04-18T11:43:06.571Z,11.30
2023-04-18T11:45:33.846Z,11.30
2023-04-18T11:48:02.532Z,11.40
2023-04-18T11:50:39.628Z,11.50
2023-04-18T11:53:06.817Z,11.60
2023-04-18T11:55:34.156Z,11.70
2023-04-18T11:58:02.680Z,11.90
2023-04-18T12:00:38.843Z,11.80
2023-04-18T12:03:13.378Z,11.50
2023-04-18T12:05:43.704Z,11.10
2023-04-18T12:08:21.409Z,11.00
2023-04-18T12:10:54.726Z,11.20
2023-04-18T12:13:33.324Z,11.60
2023-04-18T12:16:03.069Z,11.40
2023-04-18T12:18:31.720Z,11.30
2023-04-18T12:21:02.560Z,11.30
2023-04-18T12:23:35.850Z,11.50
2023-04-18T12:26:06.244Z,11.70
2023-04-18T12:28:34.873Z,11.70
2023-04-18T12:31:03.093Z,11.10
2023-04-18T12:33:31.064Z,11.50
2023-04-18T12:35:59.051Z,11.80
2023-04-18T12:38:27.349Z,12.10
2023-04-18T12:40:54.652Z,11.90
2023-04-18T12:43:22.253Z,11.60
2023-04-18T12:45:50.331Z,12.20
2023-04-18T12:48:18.552Z,12.10
2023-04-18T12:50:46.434Z,12.00
2023-04-18T12:53:14.327Z,12.20
2023-04-18T12:55:41.290Z,12.20
2023-04-18T12:58:08.419Z,11.90
2023-04-18T13:00:35.764Z,11.90
2023-04-18T13:03:03.007Z,11.80
2023-04-18T13:05:32.982Z,11.80
2023-04-18T13:10:31.689Z,11.90
2023-04-18T13:12:58.393Z,12.20
2023-04-18T13:15:26.069Z,12.20
2023-04-18T13:17:53.343Z,12.50
2023-04-18T13:20:20.446Z,12.50
2023-04-18T13:22:47.363Z,12.60
2023-04-18T13:25:14.336Z,12.80
2023-04-18T13:27:42.069Z,12.90
2023-04-18T13:30:10.939Z,12.80
2023-04-18T13:32:39.216Z,12.90
2023-04-18T13:35:09.167Z,12.80
2023-04-18T13:37:37.065Z,12.60
2023-04-18T13:40:06.419Z,12.60
2023-04-18T13:42:37.625Z,12.70
2023-04-18T13:45:05.198Z,12.70
2023-04-18T13:47:32.092Z,12.50
2023-04-18T13:49:58.937Z,12.20
2023-04-18T13:52:26.282Z,12.20
2023-04-18T13:54:53.279Z,11.90
2023-04-18T13:57:20.348Z,12.10
2023-04-18T13:59:47.223Z,12.50
2023-04-18T14:02:14.591Z,12.70
2023-04-18T14:04:41.566Z,12.30
2023-04-18T14:07:09.140Z,12.50
2023-04-18T14:09:36.337Z,12.50
2023-04-18T14:12:03.188Z,12.50
2023-04-18T14:14:30.378Z,12.50
2023-04-18T14:16:57.237Z,12.60
2023-04-18T14:19:24.113Z,12.60
2023-04-18T14:21:51.035Z,12.40
2023-04-18T14:24:18.079Z,12.80
2023-04-18T14:26:44.867Z,13.30
2023-04-18T14:29:11.786Z,13.30
2023-04-18T14:31:38.805Z,13.40
2023-04-18T14:34:06.493Z,13.40
2023-04-18T14:36:33.412Z,13.50
2023-04-18T14:39:00.493Z,13.60
2023-04-18T14:41:27.540Z,13.10
2023-04-18T14:43:54.433Z,13.00
2023-04-18T14:46:21.403Z,13.00
2023-04-18T14:48:48.502Z,13.30
2023-04-18T14:51:16.492Z,13.50
2023-04-18T14:53:44.445Z,13.70
2023-04-18T14:56:11.466Z,13.70
2023-04-18T14:58:38.717Z,13.50
2023-04-18T15:01:05.755Z,13.70
2023-04-18T15:03:33.379Z,13.70
2023-04-18T15:06:00.382Z,13.50
2023-04-18T15:08:27.394Z,13.40
2023-04-18T15:10:54.161Z,13.30
2023-04-18T15:13:21.171Z,13.30
2023-04-18T15:15:56.300Z,13.30
2023-04-18T15:18:23.240Z,13.20
2023-04-18T15:20:51.035Z,13.00
2023-04-18T15:23:17.794Z,12.70
2023-04-18T15:25:45.474Z,12.80
2023-04-18T15:28:13.736Z,12.80
2023-04-18T15:30:40.709Z,12.70
2023-04-18T15:33:08.028Z,12.80
2023-04-18T15:35:35.815Z,12.80
2023-04-18T15:38:03.059Z,12.60
2023-04-18T15:40:30.478Z,12.50
2023-04-18T15:42:59.383Z,12.60
2023-04-18T15:45:26.454Z,12.50
2023-04-18T15:47:53.486Z,12.40
2023-04-18T15:50:20.628Z,12.30
2023-04-18T15:52:47.482Z,12.30
2023-04-18T15:55:14.333Z,12.30
2023-04-18T15:57:41.729Z,12.20
2023-04-18T16:00:16.061Z,12.20
2023-04-18T16:02:46.611Z,12.30
2023-04-18T16:05:14.205Z,12.40
2023-04-18T16:07:42.018Z,12.30
2023-04-18T16:10:10.314Z,12.30
2023-04-18T16:12:38.542Z,12.20
2023-04-18T16:15:06.950Z,12.10
2023-04-18T16:17:34.455Z,12.00
2023-04-18T16:20:01.600Z,11.90
2023-04-18T16:22:28.469Z,11.70
2023-04-18T16:24:55.504Z,11.70
2023-04-18T16:27:22.387Z,11.70
2023-04-18T16:29:49.662Z,11.60
2023-04-18T16:32:16.513Z,11.50
2023-04-18T16:34:45.476Z,11.50
2023-04-18T16:37:12.258Z,11.50
2023-04-18T16:39:39.014Z,11.30
2023-04-18T16:42:05.936Z,11.30
2023-04-18T16:44:33.180Z,11.30
2023-04-18T16:47:00.255Z,11.10
2023-04-18T16:49:27.621Z,11.10
2023-04-18T16:51:54.471Z,11.00
2023-04-18T16:54:21.418Z,10.90
2023-04-18T16:56:48.311Z,10.90
2023-04-18T16:59:15.085Z,10.90
2023-04-18T17:01:42.048Z,10.90
2023-04-18T17:04:08.950Z,10.90
2023-04-18T17:06:35.832Z,10.80
2023-04-18T17:09:05.108Z,10.80
2023-04-18T17:11:34.714Z,10.80
2023-04-18T17:14:01.631Z,10.80
2023-04-18T17:16:28.425Z,10.80
2023-04-18T17:18:55.381Z,10.80
2023-04-18T17:21:22.678Z,10.80
2023-04-18T17:23:49.646Z,10.80
2023-04-18T17:26:16.485Z,10.80
2023-04-18T17:28:43.211Z,10.80
2023-04-18T17:31:10.070Z,10.70
2023-04-18T17:33:37.097Z,10.60
2023-04-18T17:36:06.357Z,10.50
2023-04-18T17:38:33.271Z,10.50
2023-04-18T17:41:00.860Z,10.50
2023-04-18T17:43:28.011Z,10.50
2023-04-18T17:45:56.833Z,10.40
2023-04-18T17:48:23.780Z,10.40
2023-04-18T17:50:50.607Z,10.40
2023-04-18T17:53:18.180Z,10.40
2023-04-18T17:55:46.842Z,10.30
2023-04-18T17:58:14.396Z,10.30
2023-04-18T18:00:41.299Z,10.30
2023-04-18T18:03:13.600Z,10.20
2023-04-18T18:05:41.906Z,10.10
2023-04-18T18:08:08.831Z,10.10
2023-04-18T18:10:35.726Z,10.00
2023-04-18T18:13:02.583Z,10.00
2023-04-18T18:15:30.925Z,9.90
2023-04-18T18:17:58.157Z,9.90
2023-04-18T18:20:25.774Z,9.80
2023-04-18T18:22:54.035Z,9.80
2023-04-18T18:25:21.485Z,9.80
2023-04-18T18:27:48.303Z,9.70
2023-04-18T18:30:15.462Z,9.70
2023-04-18T18:32:42.243Z,9.70
2023-04-18T18:35:09.350Z,9.60
2023-04-18T18:37:36.239Z,9.50
2023-04-18T18:40:07.331Z,9.50
2023-04-18T18:42:34.352Z,9.50
2023-04-18T18:45:01.612Z,9.40
2023-04-18T18:47:30.466Z,9.40
2023-04-18T18:49:57.397Z,9.40
2023-04-18T18:52:24.905Z,9.30
2023-04-18T18:54:52.757Z,9.30
2023-04-18T18:57:19.581Z,9.30
2023-04-18T18:59:46.756Z,9.20
2023-04-18T19:02:13.723Z,9.20
2023-04-18T19:04:40.891Z,9.20
2023-04-18T19:07:08.186Z,9.10
2023-04-18T19:09:36.783Z,9.10
2023-04-18T19:12:06.965Z,9.00
2023-04-18T19:14:34.049Z,8.80
2023-04-18T19:17:02.325Z,8.70
2023-04-18T19:19:29.445Z,8.70
2023-04-18T19:21:56.436Z,8.60
2023-04-18T19:24:23.385Z,8.50
2023-04-18T19:26:50.269Z,8.50
2023-04-18T19:29:18.039Z,8.50
2023-04-18T19:31:45.287Z,8.40
2023-04-18T19:34:13.372Z,8.40
2023-04-18T19:36:40.422Z,8.30
2023-04-18T19:39:08.146Z,8.30
2023-04-18T19:41:34.887Z,8.30
2023-04-18T19:44:02.600Z,8.30
2023-04-18T19:46:29.440Z,8.20
2023-04-18T19:48:56.719Z,8.20
2023-04-18T19:51:23.772Z,8.30
2023-04-18T19:53:50.580Z,8.30
2023-04-18T19:56:17.590Z,8.30
2023-04-18T19:58:47.694Z,8.30
2023-04-18T20:01:19.393Z,8.30
2023-04-18T20:03:47.051Z,8.40
2023-04-18T20:06:14.416Z,8.40
2023-04-18T20:08:41.659Z,8.40
2023-04-18T20:11:10.683Z,8.30
2023-04-18T20:13:38.425Z,8.30
2023-04-18T20:16:06.495Z,8.30
2023-04-18T20:18:35.822Z,8.20
2023-04-18T20:21:04.033Z,8.20
2023-04-18T20:23:31.068Z,8.20
2023-04-18T20:25:58.092Z,8.20
2023-04-18T20:28:25.227Z,8.10
2023-04-18T20:30:52.398Z,8.10
2023-04-18T20:33:19.518Z,8.00
2023-04-18T20:35:47.195Z,7.80
2023-04-18T20:38:14.937Z,7.80
2023-04-18T20:40:45.009Z,7.70
2023-04-18T20:43:13.610Z,7.70
2023-04-18T20:45:43.018Z,7.80
2023-04-18T20:48:10.209Z,7.80
2023-04-18T20:50:37.125Z,7.80
2023-04-18T20:53:04.045Z,7.70
2023-04-18T20:55:31.616Z,7.70
2023-04-18T20:57:58.730Z,7.60
2023-04-18T21:00:25.858Z,7.50
2023-04-18T21:02:52.755Z,7.40
2023-04-18T21:05:19.784Z,7.40
2023-04-18T21:07:46.534Z,7.30
2023-04-18T21:10:13.700Z,7.20
2023-04-18T21:12:40.528Z,7.20
2023-04-18T21:15:07.982Z,7.20
2023-04-18T21:17:34.823Z,7.20
2023-04-18T21:20:01.809Z,7.10
2023-04-18T21:22:28.650Z,7.10
2023-04-18T21:24:55.992Z,7.00
2023-04-18T21:27:22.803Z,7.00
2023-04-18T21:29:49.671Z,6.90
2023-04-18T21:32:16.515Z,7.00
2023-04-18T21:34:43.323Z,7.00
2023-04-18T21:37:10.068Z,7.00
2023-04-18T21:39:38.162Z,7.10
2023-04-18T21:42:05.125Z,7.20
2023-04-18T21:44:31.975Z,7.30
2023-04-18T21:46:58.752Z,7.30
2023-04-18T21:49:25.686Z,7.40
2023-04-18T21:51:52.528Z,7.50
2023-04-18T21:54:19.688Z,7.50
2023-04-18T21:56:46.892Z,7.50
2023-04-18T21:59:13.676Z,7.50
2023-04-18T22:01:40.667Z,7.50
2023-04-18T22:04:07.739Z,7.50
2023-04-18T22:06:34.867Z,7.60
2023-04-18T22:09:01.913Z,7.60
2023-04-18T22:11:29.125Z,7.60
2023-04-18T22:13:57.969Z,7.60
2023-04-18T22:16:24.903Z,7.60
2023-04-18T22:18:51.991Z,7.60
2023-04-18T22:21:19.212Z,7.70
2023-04-18T22:23:46.010Z,7.70
2023-04-18T22:26:13.146Z,7.70
2023-04-18T22:28:40.040Z,7.80
2023-04-18T22:31:06.890Z,7.80
2023-04-18T22:33:34.186Z,7.80
2023-04-18T22:36:01.004Z,7.90
2023-04-18T22:38:27.777Z,7.90
2023-04-18T22:40:57.186Z,7.90
2023-04-18T22:43:24.934Z,7.90
2023-04-18T22:45:51.824Z,7.90
2023-04-18T22:48:20.014Z,8.00
2023-04-18T22:50:47.307Z,8.00
2023-04-18T22:53:15.080Z,7.90
2023-04-18T22:55:43.332Z,7.90
2023-04-18T22:58:11.206Z,7.80
2023-04-18T23:00:38.199Z,7.80
2023-04-18T23:03:05.643Z,7.70
2023-04-18T23:05:34.197Z,7.80
2023-04-18T23:08:01.173Z,7.70
2023-04-18T23:10:28.209Z,7.60
2023-04-18T23:12:55.239Z,7.50
2023-04-18T23:15:22.933Z,7.60
2023-04-18T23:17:53.012Z,7.60
2023-04-18T23:20:20.639Z,7.70
2023-04-18T23:22:50.166Z,7.70
2023-04-18T23:25:17.456Z,7.70
2023-04-18T23:27:44.421Z,7.70
2023-04-18T23:30:12.343Z,7.70
2023-04-18T23:32:39.278Z,7.70
2023-04-18T23:35:06.977Z,7.70
2023-04-18T23:37:34.174Z,7.70
2023-04-18T23:40:01.100Z,7.70
2023-04-18T23:42:28.020Z,7.60
2023-04-18T23:44:55.059Z,7.60
2023-04-18T23:47:21.985Z,7.70
2023-04-18T23:49:48.981Z,7.70
2023-04-18T23:52:15.742Z,7.70
2023-04-18T23:54:42.533Z,7.70
2023-04-18T23:57:09.449Z,7.70
2023-04-18T23:59:36.224Z,7.70
